Prestige Ace — H3NG — position and weather

sailwx.info

Track history (hours):
 
Tides and Currents Weather Stations Pressure Air Temp Water Temp Dewpoint Dewpoint Depression Visibility Wind Speed Wind Dir Waves Ship Positions

Prestige Ace

Last reported at 2018-Jun-22 08:49 UTC. Time now 2018-Jun-23 23:36 UTC.
Position N 01°21' E 103°18'.

Length 200 m; draft 8.5 m.

Type: Cargo ship. MMSI: 355745000.

Date/timePositionNaut miles runAvg speedWind from/ knotsBaromVisibWave heightAir tempDewpointWater temp
2018-Jun-22 08:49N 01°21' E 103°18'618.4
2018-Jun-22 08:30N 01°16' E 103°22'815.9
2018-Jun-22 07:59N 01°13' E 103°30'714.8
2018-Jun-22 07:30N 01°12' E 103°37'4 8.9
2018-Jun-22 07:00N 01°13' E 103°41'510.3
2018-Jun-22 06:30N 01°17' E 103°45'1 1.0
2018-Jun-22 05:59N 01°17' E 103°45'0 0.0
2018-Jun-22 05:29N 01°17' E 103°45'0 0.0
2018-Jun-22 04:59N 01°17' E 103°45'0 0.0
2018-Jun-22 04:30N 01°17' E 103°45'0 0.0
2018-Jun-22 03:57N 01°17' E 103°45'0 0.0
2018-Jun-22 03:27N 01°17' E 103°45'0 0.0
2018-Jun-22 03:00N 01°17' E 103°45'0 0.0
2018-Jun-22 02:27N 01°17' E 103°45'0 0.0
2018-Jun-22 01:59N 01°17' E 103°45'0 0.0
2018-Jun-22 01:21N 01°17' E 103°45'0 0.0
2018-Jun-22 00:54N 01°17' E 103°45'0 0.0
2018-Jun-22 00:29N 01°17' E 103°45'0 0.0
2018-Jun-21 23:59N 01°17' E 103°45'0 0.0
2018-Jun-21 23:29N 01°17' E 103°45'0 0.0
2018-Jun-21 23:00N 01°17' E 103°45'0 0.0
2018-Jun-21 22:29N 01°17' E 103°45'0 0.0
2018-Jun-21 22:00N 01°17' E 103°45'0 0.0
2018-Jun-21 21:29N 01°17' E 103°45'0 0.0
2018-Jun-21 20:56N 01°17' E 103°45'0 0.0
2018-Jun-21 20:26N 01°17' E 103°45'0 0.0
2018-Jun-21 19:59N 01°17' E 103°45'0 0.0
2018-Jun-21 19:29N 01°17' E 103°45'0 0.0
2018-Jun-21 19:00N 01°17' E 103°45'0 0.0
2018-Jun-21 18:30N 01°17' E 103°45'0 0.0
2018-Jun-21 17:57N 01°17' E 103°45'0 0.0
2018-Jun-21 17:27N 01°17' E 103°45'0 0.0
2018-Jun-21 16:59N 01°17' E 103°45'0 0.0
2018-Jun-21 16:29N 01°17' E 103°45'0 0.0
2018-Jun-21 15:59N 01°17' E 103°45'0 0.0
2018-Jun-21 15:30N 01°17' E 103°45'0 0.0
2018-Jun-21 14:59N 01°17' E 103°45'0 0.0
2018-Jun-21 14:30N 01°17' E 103°45'0 0.0
2018-Jun-21 13:58N 01°17' E 103°45'0 0.0
2018-Jun-21 13:26N 01°17' E 103°45'0 0.0
2018-Jun-21 12:56N 01°17' E 103°45'0 0.0
2018-Jun-21 12:29N 01°17' E 103°45'0 0.0
2018-Jun-21 11:59N 01°17' E 103°45'0 0.0
2018-Jun-21 11:29N 01°17' E 103°45'0 0.0
2018-Jun-21 10:53N 01°17' E 103°45'0 0.0
2018-Jun-21 10:30N 01°17' E 103°45'0 0.9
2018-Jun-21 10:00N 01°17' E 103°45'2 4.2
2018-Jun-21 09:30N 01°15' E 103°46'510.5
2018-Jun-21 09:01N 01°12' E 103°50'4 8.9
2018-Jun-21 08:31N 01°14' E 103°54'4 8.2
2018-Jun-21 07:59N 01°15' E 103°58'612.5
2018-Jun-21 07:30N 01°16' E 104°04'612.4
2018-Jun-21 06:59N 01°17' E 104°11'5 9.8
2018-Jun-21 06:30N 01°18' E 104°15'5 9.7
2018-Jun-21 05:57N 01°20' E 104°20'612.3
2018-Jun-21 05:28N 01°23' E 104°25'  
2018-Jun-13 11:11N 35°02' E 139°41'213.4
2018-Jun-13 11:00N 35°04' E 139°43'613.1
2018-Jun-13 10:30N 35°10' E 139°45'611.4
2018-Jun-13 10:00N 35°16' E 139°46'612.8
2018-Jun-13 09:30N 35°22' E 139°42'4 6.9
2018-Jun-13 09:00N 35°25' E 139°41'0 0.4
2018-Jun-13 08:30N 35°25' E 139°41'0 0.0
2018-Jun-13 08:00N 35°25' E 139°41'0 0.0
2018-Jun-13 07:30N 35°25' E 139°41'0 0.0
2018-Jun-13 07:00N 35°25' E 139°41'0 0.0
2018-Jun-13 06:30N 35°25' E 139°41'0 0.0
2018-Jun-13 06:00N 35°25' E 139°41'0 0.0
2018-Jun-13 05:30N 35°25' E 139°41'0 0.0
2018-Jun-13 05:00N 35°25' E 139°41'0 0.0
2018-Jun-13 04:30N 35°25' E 139°41'0 0.0
2018-Jun-13 04:00N 35°25' E 139°41'0 0.0
2018-Jun-13 03:29N 35°25' E 139°41'0 0.0
2018-Jun-13 02:59N 35°25' E 139°41'0 0.0
2018-Jun-13 02:29N 35°25' E 139°41'0 0.0
2018-Jun-13 01:59N 35°25' E 139°41'0 0.0
2018-Jun-13 01:29N 35°25' E 139°41'0 0.0
2018-Jun-13 00:59N 35°25' E 139°41'0 0.0
2018-Jun-13 00:29N 35°25' E 139°41'0 0.0
2018-Jun-12 23:59N 35°25' E 139°41'0 0.0
2018-Jun-12 23:29N 35°25' E 139°41'0 0.0
2018-Jun-12 22:59N 35°25' E 139°41'0 0.0
2018-Jun-12 22:29N 35°25' E 139°41'1 2.7
2018-Jun-12 22:00N 35°25' E 139°42'4 8.9
2018-Jun-12 21:30N 35°21' E 139°43'612.5
2018-Jun-12 21:00N 35°15' E 139°47'611.4
2018-Jun-12 20:30N 35°10' E 139°47'611.3
2018-Jun-12 19:59N 35°04' E 139°44'  
Track history (hours):
 
Tides and Currents Weather Stations Pressure Air Temp Water Temp Dewpoint Dewpoint Depression Visibility Wind Speed Wind Dir Waves Ship Positions

Prestige Ace

Last reported at 2018-Jun-22 08:49 UTC. Time now 2018-Jun-23 23:36 UTC.
Position N 01°21' E 103°18'.

Length 200 m; draft 8.5 m.

Type: Cargo ship. MMSI: 355745000.

Date/timePositionNaut miles runAvg speedWind from/ knotsBaromVisibWave heightAir tempDewpointWater temp
2018-Jun-22 08:49N 01°21' E 103°18'618.4
2018-Jun-22 08:30N 01°16' E 103°22'815.9
2018-Jun-22 07:59N 01°13' E 103°30'714.8
2018-Jun-22 07:30N 01°12' E 103°37'4 8.9
2018-Jun-22 07:00N 01°13' E 103°41'510.3
2018-Jun-22 06:30N 01°17' E 103°45'1 1.0
2018-Jun-22 05:59N 01°17' E 103°45'0 0.0
2018-Jun-22 05:29N 01°17' E 103°45'0 0.0
2018-Jun-22 04:59N 01°17' E 103°45'0 0.0
2018-Jun-22 04:30N 01°17' E 103°45'0 0.0
2018-Jun-22 03:57N 01°17' E 103°45'0 0.0
2018-Jun-22 03:27N 01°17' E 103°45'0 0.0
2018-Jun-22 03:00N 01°17' E 103°45'0 0.0
2018-Jun-22 02:27N 01°17' E 103°45'0 0.0
2018-Jun-22 01:59N 01°17' E 103°45'0 0.0
2018-Jun-22 01:21N 01°17' E 103°45'0 0.0
2018-Jun-22 00:54N 01°17' E 103°45'0 0.0
2018-Jun-22 00:29N 01°17' E 103°45'0 0.0
2018-Jun-21 23:59N 01°17' E 103°45'0 0.0
2018-Jun-21 23:29N 01°17' E 103°45'0 0.0
2018-Jun-21 23:00N 01°17' E 103°45'0 0.0
2018-Jun-21 22:29N 01°17' E 103°45'0 0.0
2018-Jun-21 22:00N 01°17' E 103°45'0 0.0
2018-Jun-21 21:29N 01°17' E 103°45'0 0.0
2018-Jun-21 20:56N 01°17' E 103°45'0 0.0
2018-Jun-21 20:26N 01°17' E 103°45'0 0.0
2018-Jun-21 19:59N 01°17' E 103°45'0 0.0
2018-Jun-21 19:29N 01°17' E 103°45'0 0.0
2018-Jun-21 19:00N 01°17' E 103°45'0 0.0
2018-Jun-21 18:30N 01°17' E 103°45'0 0.0
2018-Jun-21 17:57N 01°17' E 103°45'0 0.0
2018-Jun-21 17:27N 01°17' E 103°45'0 0.0
2018-Jun-21 16:59N 01°17' E 103°45'0 0.0
2018-Jun-21 16:29N 01°17' E 103°45'0 0.0
2018-Jun-21 15:59N 01°17' E 103°45'0 0.0
2018-Jun-21 15:30N 01°17' E 103°45'0 0.0
2018-Jun-21 14:59N 01°17' E 103°45'0 0.0
2018-Jun-21 14:30N 01°17' E 103°45'0 0.0
2018-Jun-21 13:58N 01°17' E 103°45'0 0.0
2018-Jun-21 13:26N 01°17' E 103°45'0 0.0
2018-Jun-21 12:56N 01°17' E 103°45'0 0.0
2018-Jun-21 12:29N 01°17' E 103°45'0 0.0
2018-Jun-21 11:59N 01°17' E 103°45'0 0.0
2018-Jun-21 11:29N 01°17' E 103°45'0 0.0
2018-Jun-21 10:53N 01°17' E 103°45'0 0.0
2018-Jun-21 10:30N 01°17' E 103°45'0 0.9
2018-Jun-21 10:00N 01°17' E 103°45'2 4.2
2018-Jun-21 09:30N 01°15' E 103°46'510.5
2018-Jun-21 09:01N 01°12' E 103°50'4 8.9
2018-Jun-21 08:31N 01°14' E 103°54'4 8.2
2018-Jun-21 07:59N 01°15' E 103°58'612.5
2018-Jun-21 07:30N 01°16' E 104°04'612.4
2018-Jun-21 06:59N 01°17' E 104°11'5 9.8
2018-Jun-21 06:30N 01°18' E 104°15'5 9.7
2018-Jun-21 05:57N 01°20' E 104°20'612.3
2018-Jun-21 05:28N 01°23' E 104°25'  
2018-Jun-13 11:11N 35°02' E 139°41'213.4
2018-Jun-13 11:00N 35°04' E 139°43'613.1
2018-Jun-13 10:30N 35°10' E 139°45'611.4
2018-Jun-13 10:00N 35°16' E 139°46'612.8
2018-Jun-13 09:30N 35°22' E 139°42'4 6.9
2018-Jun-13 09:00N 35°25' E 139°41'0 0.4
2018-Jun-13 08:30N 35°25' E 139°41'0 0.0
2018-Jun-13 08:00N 35°25' E 139°41'0 0.0
2018-Jun-13 07:30N 35°25' E 139°41'0 0.0
2018-Jun-13 07:00N 35°25' E 139°41'0 0.0
2018-Jun-13 06:30N 35°25' E 139°41'0 0.0
2018-Jun-13 06:00N 35°25' E 139°41'0 0.0
2018-Jun-13 05:30N 35°25' E 139°41'0 0.0
2018-Jun-13 05:00N 35°25' E 139°41'0 0.0
2018-Jun-13 04:30N 35°25' E 139°41'0 0.0
2018-Jun-13 04:00N 35°25' E 139°41'0 0.0
2018-Jun-13 03:29N 35°25' E 139°41'0 0.0
2018-Jun-13 02:59N 35°25' E 139°41'0 0.0
2018-Jun-13 02:29N 35°25' E 139°41'0 0.0
2018-Jun-13 01:59N 35°25' E 139°41'0 0.0
2018-Jun-13 01:29N 35°25' E 139°41'0 0.0
2018-Jun-13 00:59N 35°25' E 139°41'0 0.0
2018-Jun-13 00:29N 35°25' E 139°41'0 0.0
2018-Jun-12 23:59N 35°25' E 139°41'0 0.0
2018-Jun-12 23:29N 35°25' E 139°41'0 0.0
2018-Jun-12 22:59N 35°25' E 139°41'0 0.0
2018-Jun-12 22:29N 35°25' E 139°41'1 2.7
2018-Jun-12 22:00N 35°25' E 139°42'4 8.9
2018-Jun-12 21:30N 35°21' E 139°43'612.5
2018-Jun-12 21:00N 35°15' E 139°47'611.4
2018-Jun-12 20:30N 35°10' E 139°47'611.3
2018-Jun-12 19:59N 35°04' E 139°44'  

Dump ship's entire track history